Time;durP1;ratioP1;P1;durP2;ratioP2;P2;SDS_P1;SDS_P2;PMS_P1;PMS_P2;Temp;Humidity;BMP_temperature;BMP_pressure;BME280_temperature;BME280_humidity;BME280_pressure;Samples;Min_cycle;Max_cycle;Signal;HPM_P1;HPM_P2
2021/09/02 00:00:26;;;;;;;;;;;;;;;;;;5072685;28;19912;-81
2021/09/02 00:02:51;;;;;;;;;;;;;;;;;;5072246;28;19912;-81
2021/09/02 00:05:16;;;;;;;;;;;;;;;;;;5072517;28;19958;-81
2021/09/02 00:07:42;;;;;;;;;;;;;;;;;;5072265;28;19922;-81
2021/09/02 00:10:07;;;;;;;;;;;;;;;;;;5056079;28;19908;-81
2021/09/02 00:12:33;;;;;;;;;;;;;;;;;;5072612;28;20362;-81
2021/09/02 00:14:58;;;;;;;;;;;;;;;;;;5055930;28;19996;-80
2021/09/02 00:17:23;;;;;;;;;;;;;;;;;;5072104;28;20002;-81
2021/09/02 00:19:48;;;;;;;;;;;;;;;;;;5055823;28;19912;-81
2021/09/02 00:22:14;;;;;;;;;;;;;;;;;;5071876;28;19913;-81
2021/09/02 00:24:39;;;;;;;;;;;;;;;;;;5069583;28;19924;-81
2021/09/02 00:27:04;;;;;;;;;;;;;;;;;;5069062;28;19913;-81
2021/09/02 00:29:30;;;;;;;;;;;;;;;;;;5052393;28;19912;-81
2021/09/02 00:31:55;;;;;;;;;;;;;;;;;;5052011;28;19916;-81
2021/09/02 00:34:20;;;;;;;;;;;;;;;;;;5052396;28;19919;-81
2021/09/02 00:36:46;;;;;;;;;;;;;;;;;;5057279;28;19982;-81
2021/09/02 00:39:11;;;;;;;;;;;;;;;;;;5035731;28;19916;-81
2021/09/02 00:41:36;;;;;;;;;;;;;;;;;;5052216;28;19912;-81
2021/09/02 00:44:02;;;;;;;;;;;;;;;;;;5052128;28;19908;-81
2021/09/02 00:46:27;;;;;;;;;;;;;;;;;;5035025;28;19909;-81
2021/09/02 00:48:52;;;;;;;;;;;;;;;;;;5066530;28;19970;-81
2021/09/02 00:51:18;;;;;;;;;;;;;;;;;;5071603;28;19912;-81
2021/09/02 00:53:53;;;;;;;;;;;;;;;;;;5038674;28;19915;-81
2021/09/02 00:56:18;;;;;;;;;;;;;;;;;;5055043;28;19904;-81
2021/09/02 00:58:44;;;;;;;;;;;;;;;;;;5054752;28;19912;-81
2021/09/02 01:01:09;;;;;;;;;;;;;;;;;;5071326;28;19934;-81
2021/09/02 01:03:35;;;;;;;;;;;;;;;;;;5071610;28;19962;-81
2021/09/02 01:06:00;;;;;;;;;;;;;;;;;;5070235;28;20014;-81
2021/09/02 01:08:26;;;;;;;;;;;;;;;;;;5070932;28;19916;-81
2021/09/02 01:10:51;;;;;;;;;;;;;;;;;;5071595;28;20282;-81
2021/09/02 01:13:17;;;;;;;;;;;;;;;;;;5054905;28;19916;-81
2021/09/02 01:15:42;;;;;;;;;;;;;;;;;;5053546;28;19913;-81
2021/09/02 01:18:08;;;;;;;;;;;;;;;;;;5070722;28;19912;-82
2021/09/02 01:20:34;;;;;;;;;;;;;;;;;;5051522;28;20385;-81
2021/09/02 01:23:00;;;;;;;;;;;;;;;;;;5076464;28;19923;-81
2021/09/02 01:25:26;;;;;;;;;;;;;;;;;;5071068;28;20433;-81
2021/09/02 01:27:53;;;;;;;;;;;;;;;;;;5053779;28;19912;-81
2021/09/02 01:30:18;;;;;;;;;;;;;;;;;;5053891;28;19969;-81
2021/09/02 01:32:44;;;;;;;;;;;;;;;;;;5071257;28;19913;-81
2021/09/02 01:35:10;;;;;;;;;;;;;;;;;;5070887;28;19965;-81
2021/09/02 01:37:36;;;;;;;;;;;;;;;;;;5070938;28;19916;-81
2021/09/02 01:40:03;;;;;;;;;;;;;;;;;;5071051;28;19912;-81
2021/09/02 01:42:29;;;;;;;;;;;;;;;;;;5070560;28;19912;-81
2021/09/02 01:44:54;;;;;;;;;;;;;;;;;;5071011;28;20401;-81
2021/09/02 01:47:19;;;;;;;;;;;;;;;;;;5052569;28;19917;-81
2021/09/02 01:49:45;;;;;;;;;;;;;;;;;;5052661;28;20354;-81
2021/09/02 01:52:10;;;;;;;;;;;;;;;;;;5070823;28;20328;-81
2021/09/02 01:54:35;;;;;;;;;;;;;;;;;;5054282;28;19908;-81
2021/09/02 01:57:02;;;;;;;;;;;;;;;;;;5070977;28;19919;-81
2021/09/02 01:59:27;;;;;;;;;;;;;;;;;;5070516;28;19965;-81
2021/09/02 02:01:52;;;;;;;;;;;;;;;;;;5070592;28;19908;-81
2021/09/02 02:04:17;;;;;;;;;;;;;;;;;;5053561;28;19912;-81
2021/09/02 02:06:43;;;;;;;;;;;;;;;;;;5053410;28;19971;-81
2021/09/02 02:09:08;;;;;;;;;;;;;;;;;;5070174;28;19953;-81
2021/09/02 02:11:33;;;;;;;;;;;;;;;;;;5053555;28;19915;-81
2021/09/02 02:13:59;;;;;;;;;;;;;;;;;;5042212;28;19928;-81
2021/09/02 02:16:24;;;;;;;;;;;;;;;;;;5067921;28;19908;-82
2021/09/02 02:18:49;;;;;;;;;;;;;;;;;;5072365;28;19913;-81
2021/09/02 02:21:15;;;;;;;;;;;;;;;;;;5074505;28;19908;-81
2021/09/02 02:23:40;;;;;;;;;;;;;;;;;;5074997;28;19912;-82
2021/09/02 02:26:05;;;;;;;;;;;;;;;;;;5057901;28;19908;-81
2021/09/02 02:28:31;;;;;;;;;;;;;;;;;;5057968;28;19912;-81
2021/09/02 02:30:56;;;;;;;;;;;;;;;;;;5057363;28;19955;-81
2021/09/02 02:33:21;;;;;;;;;;;;;;;;;;5074741;28;19954;-81
2021/09/02 02:35:47;;;;;;;;;;;;;;;;;;5074463;28;19915;-81
2021/09/02 02:38:12;;;;;;;;;;;;;;;;;;5074005;28;20374;-81
2021/09/02 02:40:37;;;;;;;;;;;;;;;;;;5074449;28;19958;-81
2021/09/02 02:43:03;;;;;;;;;;;;;;;;;;5074468;28;19908;-81
2021/09/02 02:45:28;;;;;;;;;;;;;;;;;;5056808;28;19958;-80
2021/09/02 02:47:53;;;;;;;;;;;;;;;;;;5074018;28;19908;-81
2021/09/02 02:50:19;;;;;;;;;;;;;;;;;;5056736;28;19920;-81
2021/09/02 02:52:44;;;;;;;;;;;;;;;;;;5056888;28;19916;-82
2021/09/02 02:55:09;;;;;;;;;;;;;;;;;;5073820;28;19919;-80
2021/09/02 02:57:35;;;;;;;;;;;;;;;;;;5056819;28;19909;-81
2021/09/02 03:00:00;;;;;;;;;;;;;;;;;;5073280;28;20371;-81
2021/09/02 03:02:25;;;;;;;;;;;;;;;;;;5057017;28;20350;-80
2021/09/02 03:04:51;;;;;;;;;;;;;;;;;;5073778;28;20023;-81
2021/09/02 03:07:16;;;;;;;;;;;;;;;;;;5069407;28;20007;-81
2021/09/02 03:09:41;;;;;;;;;;;;;;;;;;5053534;28;19909;-81
2021/09/02 03:12:07;;;;;;;;;;;;;;;;;;5053824;28;20031;-81
2021/09/02 03:14:32;;;;;;;;;;;;;;;;;;5053421;28;19959;-81
2021/09/02 03:16:57;;;;;;;;;;;;;;;;;;5053339;28;19909;-80
2021/09/02 03:19:23;;;;;;;;;;;;;;;;;;5058487;28;19961;-81
2021/09/02 03:21:48;;;;;;;;;;;;;;;;;;5056611;28;19915;-81
2021/09/02 03:24:13;;;;;;;;;;;;;;;;;;5056734;28;20342;-81
2021/09/02 03:26:38;;;;;;;;;;;;;;;;;;5056348;28;19908;-81
2021/09/02 03:29:04;;;;;;;;;;;;;;;;;;5055884;28;19923;-81
2021/09/02 03:31:29;;;;;;;;;;;;;;;;;;5056008;28;19916;-81
2021/09/02 03:33:55;;;;;;;;;;;;;;;;;;5073607;28;20366;-80
2021/09/02 03:36:20;;;;;;;;;;;;;;;;;;5056173;28;19945;-81
2021/09/02 03:38:45;;;;;;;;;;;;;;;;;;5039218;28;19909;-81
2021/09/02 03:41:11;;;;;;;;;;;;;;;;;;5073056;28;20038;-81
2021/09/02 03:43:36;;;;;;;;;;;;;;;;;;5056326;28;19915;-81
2021/09/02 03:46:01;;;;;;;;;;;;;;;;;;5072953;28;19991;-81
2021/09/02 03:48:27;;;;;;;;;;;;;;;;;;5062123;28;19908;-82
2021/09/02 03:50:54;;;;;;;;;;;;;;;;;;5036505;28;19909;-82
2021/09/02 03:53:20;;;;;;;;;;;;;;;;;;5036168;28;19913;-82
2021/09/02 03:55:45;;;;;;;;;;;;;;;;;;5036441;28;19959;-81
2021/09/02 03:58:10;;;;;;;;;;;;;;;;;;5052226;28;19920;-81
2021/09/02 04:00:36;;;;;;;;;;;;;;;;;;5051111;28;19912;-82
2021/09/02 04:03:01;;;;;;;;;;;;;;;;;;5068778;28;19917;-81
2021/09/02 04:05:26;;;;;;;;;;;;;;;;;;5052626;28;20003;-82
2021/09/02 04:07:51;;;;;;;;;;;;;;;;;;5068972;28;19917;-81
2021/09/02 04:10:17;;;;;;;;;;;;;;;;;;5053027;28;19909;-81
2021/09/02 04:12:42;;;;;;;;;;;;;;;;;;5060114;28;19935;-81
2021/09/02 04:15:08;;;;;;;;;;;;;;;;;;5072483;28;19951;-81
2021/09/02 04:17:33;;;;;;;;;;;;;;;;;;5055489;28;20007;-81
2021/09/02 04:19:58;;;;;;;;;;;;;;;;;;5055402;28;19919;-81
2021/09/02 04:22:23;;;;;;;;;;;;;;;;;;5072068;28;19908;-81
2021/09/02 04:24:49;;;;;;;;;;;;;;;;;;5072733;28;20496;-81
2021/09/02 04:27:16;;;;;;;;;;;;;;;;;;5071939;28;20353;-81
2021/09/02 04:29:42;;;;;;;;;;;;;;;;;;5055450;28;19908;-81
2021/09/02 04:32:07;;;;;;;;;;;;;;;;;;5055711;28;20397;-81
2021/09/02 04:34:33;;;;;;;;;;;;;;;;;;5071882;28;19916;-81
2021/09/02 04:36:58;;;;;;;;;;;;;;;;;;5055056;28;19924;-81
2021/09/02 04:39:23;;;;;;;;;;;;;;;;;;5071887;28;19999;-81
2021/09/02 04:41:48;;;;;;;;;;;;;;;;;;5069945;28;19923;-82
2021/09/02 04:44:14;;;;;;;;;;;;;;;;;;5069668;28;19923;-81
2021/09/02 04:46:39;;;;;;;;;;;;;;;;;;5069248;28;20094;-81
2021/09/02 04:49:05;;;;;;;;;;;;;;;;;;5055174;28;20011;-81
2021/09/02 04:51:30;;;;;;;;;;;;;;;;;;5035120;28;20366;-81
2021/09/02 04:53:55;;;;;;;;;;;;;;;;;;5035136;28;19914;-80
2021/09/02 04:56:21;;;;;;;;;;;;;;;;;;5063974;28;19920;-81
2021/09/02 04:58:46;;;;;;;;;;;;;;;;;;5054526;28;19954;-81
2021/09/02 05:01:11;;;;;;;;;;;;;;;;;;5054271;28;19998;-82
2021/09/02 05:03:37;;;;;;;;;;;;;;;;;;5038364;28;20003;-81
2021/09/02 05:06:02;;;;;;;;;;;;;;;;;;5038065;28;19923;-82
2021/09/02 05:08:28;;;;;;;;;;;;;;;;;;5060397;28;19912;-81
2021/09/02 05:10:55;;;;;;;;;;;;;;;;;;5055088;28;19912;-81
2021/09/02 05:13:20;;;;;;;;;;;;;;;;;;5044733;28;19916;-82
2021/09/02 05:15:49;;;;;;;;;;;;;;;;;;5070961;28;20054;-82
2021/09/02 05:18:14;;;;;;;;;;;;;;;;;;5053533;28;20039;-82
2021/09/02 05:20:39;;;;;;;;;;;;;;;;;;5042292;28;20294;-82
2021/09/02 05:23:05;;;;;;;;;;;;;;;;;;5048270;28;19978;-82
2021/09/02 05:25:30;;;;;;;;;;;;;;;;;;5051233;28;19919;-83
2021/09/02 05:27:55;;;;;;;;;;;;;;;;;;5052459;28;19915;-83
2021/09/02 05:30:22;;;;;;;;;;;;;;;;;;5066083;28;19913;-82
2021/09/02 05:32:47;;;;;;;;;;;;;;;;;;5060058;28;19912;-82
2021/09/02 05:35:12;;;;;;;;;;;;;;;;;;5056295;28;20307;-83
2021/09/02 05:37:38;;;;;;;;;;;;;;;;;;5050809;28;19995;-82
2021/09/02 05:40:03;;;;;;;;;;;;;;;;;;5050064;28;19912;-82
2021/09/02 05:42:29;;;;;;;;;;;;;;;;;;5051811;28;19990;-82
2021/09/02 05:44:54;;;;;;;;;;;;;;;;;;5049751;28;20406;-82
2021/09/02 05:47:19;;;;;;;;;;;;;;;;;;5036001;28;19912;-82
2021/09/02 05:49:45;;;;;;;;;;;;;;;;;;5054171;28;19962;-82
2021/09/02 05:52:10;;;;;;;;;;;;;;;;;;5067556;28;19919;-82
2021/09/02 05:54:35;;;;;;;;;;;;;;;;;;5067012;28;19913;-81
2021/09/02 05:57:01;;;;;;;;;;;;;;;;;;5075261;28;19912;-81
2021/09/02 05:59:26;;;;;;;;;;;;;;;;;;5066105;28;19920;-81
2021/09/02 06:01:51;;;;;;;;;;;;;;;;;;5078129;28;19909;-82
2021/09/02 06:04:16;;;;;;;;;;;;;;;;;;5067233;28;20355;-82
2021/09/02 06:06:42;;;;;;;;;;;;;;;;;;5069873;28;20851;-82
2021/09/02 06:09:07;;;;;;;;;;;;;;;;;;5037169;28;19913;-82
2021/09/02 06:11:34;;;;;;;;;;;;;;;;;;5054240;28;19916;-82
2021/09/02 06:13:59;;;;;;;;;;;;;;;;;;5053963;28;19908;-82
2021/09/02 06:16:25;;;;;;;;;;;;;;;;;;5054122;28;19913;-84
2021/09/02 06:18:50;;;;;;;;;;;;;;;;;;5038183;28;19960;-82
2021/09/02 06:21:15;;;;;;;;;;;;;;;;;;5028806;28;20362;-82
2021/09/02 06:23:41;;;;;;;;;;;;;;;;;;5053180;28;20015;-82
2021/09/02 06:26:06;;;;;;;;;;;;;;;;;;5036920;28;19978;-81
2021/09/02 06:28:31;;;;;;;;;;;;;;;;;;5047819;28;19947;-81
2021/09/02 06:30:56;;;;;;;;;;;;;;;;;;5071014;28;19912;-81
2021/09/02 06:33:22;;;;;;;;;;;;;;;;;;5055031;28;20331;-81
2021/09/02 06:35:47;;;;;;;;;;;;;;;;;;5051230;28;19908;-82
2021/09/02 06:38:12;;;;;;;;;;;;;;;;;;5069678;28;19940;-82
2021/09/02 06:40:38;;;;;;;;;;;;;;;;;;5070373;28;19947;-81
2021/09/02 06:43:03;;;;;;;;;;;;;;;;;;5051623;28;19912;-82
2021/09/02 06:45:28;;;;;;;;;;;;;;;;;;5050148;28;19931;-79
2021/09/02 06:47:54;;;;;;;;;;;;;;;;;;5069008;28;19912;-84
2021/09/02 06:50:20;;;;;;;;;;;;;;;;;;5054082;28;19919;-90
2021/09/02 06:52:46;;;;;;;;;;;;;;;;;;5054133;28;19921;-91
2021/09/02 06:55:13;;;;;;;;;;;;;;;;;;5055094;28;19917;-92
2021/09/02 06:57:39;;;;;;;;;;;;;;;;;;5054050;28;20255;-86
2021/09/02 07:00:06;;;;;;;;;;;;;;;;;;5053725;28;19912;-86
2021/09/02 07:02:34;;;;;;;;;;;;;;;;;;5053307;28;19920;-86
2021/09/02 07:04:59;;;;;;;;;;;;;;;;;;5055788;28;19909;-85
2021/09/02 07:07:24;;;;;;;;;;;;;;;;;;5055749;28;19939;-85
2021/09/02 07:09:50;;;;;;;;;;;;;;;;;;5038158;28;20292;-84
2021/09/02 07:12:16;;;;;;;;;;;;;;;;;;5073363;28;19912;-85
2021/09/02 07:14:41;;;;;;;;;;;;;;;;;;5037033;28;20001;-85
2021/09/02 07:17:07;;;;;;;;;;;;;;;;;;5053085;28;19954;-84
2021/09/02 07:19:32;;;;;;;;;;;;;;;;;;5054084;28;19984;-84
2021/09/02 07:21:57;;;;;;;;;;;;;;;;;;5071333;28;19912;-84
2021/09/02 07:24:24;;;;;;;;;;;;;;;;;;5046979;28;19920;-80
2021/09/02 07:26:49;;;;;;;;;;;;;;;;;;5055803;28;20115;-83
2021/09/02 07:29:15;;;;;;;;;;;;;;;;;;5053238;28;20378;-80
2021/09/02 07:31:40;;;;;;;;;;;;;;;;;;5037930;28;19908;-80
2021/09/02 07:34:06;;;;;;;;;;;;;;;;;;5054338;28;20282;-80
2021/09/02 07:36:31;;;;;;;;;;;;;;;;;;5068848;28;19965;-82
2021/09/02 07:38:56;;;;;;;;;;;;;;;;;;5036673;28;19921;-83
2021/09/02 07:41:21;;;;;;;;;;;;;;;;;;5065348;28;19915;-82
2021/09/02 07:43:47;;;;;;;;;;;;;;;;;;5073113;28;19970;-81
2021/09/02 07:46:12;;;;;;;;;;;;;;;;;;5055826;28;20011;-81
2021/09/02 07:48:37;;;;;;;;;;;;;;;;;;5043887;28;19991;-81
2021/09/02 07:51:03;;;;;;;;;;;;;;;;;;5035776;28;19912;-81
2021/09/02 07:53:29;;;;;;;;;;;;;;;;;;5047848;28;19951;-81
2021/09/02 07:55:54;;;;;;;;;;;;;;;;;;5056217;28;19915;-81
2021/09/02 07:58:19;;;;;;;;;;;;;;;;;;5072401;28;19912;-81
2021/09/02 08:00:45;;;;;;;;;;;;;;;;;;5048552;28;19948;-81
2021/09/02 08:03:11;;;;;;;;;;;;;;;;;;5069948;28;19909;-81
2021/09/02 08:05:36;;;;;;;;;;;;;;;;;;5060672;28;19981;-80
2021/09/02 08:08:01;;;;;;;;;;;;;;;;;;5068610;28;19923;-81
2021/09/02 08:10:27;;;;;;;;;;;;;;;;;;5070873;28;19919;-81
2021/09/02 08:12:52;;;;;;;;;;;;;;;;;;5061031;28;19912;-81
2021/09/02 08:15:19;;;;;;;;;;;;;;;;;;5071994;28;19916;-81
2021/09/02 08:17:44;;;;;;;;;;;;;;;;;;5039195;28;19919;-81
2021/09/02 08:20:10;;;;;;;;;;;;;;;;;;5072256;28;20011;-81
2021/09/02 08:22:35;;;;;;;;;;;;;;;;;;5071892;28;19919;-80
2021/09/02 08:25:01;;;;;;;;;;;;;;;;;;5055565;28;19908;-81
2021/09/02 08:27:26;;;;;;;;;;;;;;;;;;5051604;28;19912;-81
2021/09/02 08:29:51;;;;;;;;;;;;;;;;;;5067655;28;20665;-81
2021/09/02 08:32:16;;;;;;;;;;;;;;;;;;5034521;28;19940;-81
2021/09/02 08:34:42;;;;;;;;;;;;;;;;;;5034839;28;20329;-81
2021/09/02 08:37:07;;;;;;;;;;;;;;;;;;5062452;28;19918;-83
2021/09/02 08:39:32;;;;;;;;;;;;;;;;;;5071240;28;20282;-85
2021/09/02 08:41:58;;;;;;;;;;;;;;;;;;5065444;28;19912;-86
2021/09/02 08:44:25;;;;;;;;;;;;;;;;;;5047251;28;19909;-84
2021/09/02 08:46:51;;;;;;;;;;;;;;;;;;5052288;28;19955;-86
2021/09/02 08:49:23;;;;;;;;;;;;;;;;;;5059379;28;19912;-86
2021/09/02 08:51:48;;;;;;;;;;;;;;;;;;5055346;28;19916;-86
2021/09/02 08:54:15;;;;;;;;;;;;;;;;;;5030407;28;19913;-85
2021/09/02 08:56:40;;;;;;;;;;;;;;;;;;5051136;28;19916;-83
2021/09/02 08:59:05;;;;;;;;;;;;;;;;;;5074711;28;19919;-82
2021/09/02 09:01:31;;;;;;;;;;;;;;;;;;5071058;28;19923;-81
2021/09/02 09:03:56;;;;;;;;;;;;;;;;;;5052866;28;19958;-82
2021/09/02 09:06:22;;;;;;;;;;;;;;;;;;5054359;28;19917;-82
2021/09/02 09:08:48;;;;;;;;;;;;;;;;;;5032914;28;19917;-82
2021/09/02 09:11:14;;;;;;;;;;;;;;;;;;5056671;28;19908;-82
2021/09/02 09:13:39;;;;;;;;;;;;;;;;;;5048027;28;19920;-82
2021/09/02 09:16:04;;;;;;;;;;;;;;;;;;5054538;28;19908;-84
2021/09/02 09:18:30;;;;;;;;;;;;;;;;;;5054169;28;20432;-83
2021/09/02 09:21:05;;;;;;;;;;;;;;;;;;5070878;28;19912;-84
2021/09/02 09:24:07;;;;;;;;;;;;;;;;;;5054316;28;19917;-83
2021/09/02 09:26:33;;;;;;;;;;;;;;;;;;4997754;28;19924;-84
2021/09/02 09:29:03;;;;;;;;;;;;;;;;;;5019525;28;19917;-84
2021/09/02 09:31:39;;;;;;;;;;;;;;;;;;5052445;28;19920;-82
2021/09/02 09:34:05;;;;;;;;;;;;;;;;;;5085616;28;21924;-86
2021/09/02 09:36:30;;;;;;;;;;;;;;;;;;5051679;28;20002;-86
2021/09/02 09:38:57;;;;;;;;;;;;;;;;;;5069329;28;20397;-84
2021/09/02 09:41:31;;;;;;;;;;;;;;;;;;5070366;28;19923;-84
2021/09/02 09:44:15;;;;;;;;;;;;;;;;;;5054363;28;19908;-84
2021/09/02 09:46:40;;;;;;;;;;;;;;;;;;5066684;28;19966;-83
2021/09/02 09:49:06;;;;;;;;;;;;;;;;;;5039760;28;20019;-83
2021/09/02 09:51:32;;;;;;;;;;;;;;;;;;5054550;28;20013;-85
2021/09/02 09:53:59;;;;;;;;;;;;;;;;;;5038974;28;20281;-85
2021/09/02 09:56:24;;;;;;;;;;;;;;;;;;5037825;28;19918;-86
2021/09/02 09:58:50;;;;;;;;;;;;;;;;;;5034637;28;19912;-84
2021/09/02 10:01:17;;;;;;;;;;;;;;;;;;5053982;28;19916;-84
2021/09/02 10:03:45;;;;;;;;;;;;;;;;;;5083921;28;19912;-85
2021/09/02 10:06:11;;;;;;;;;;;;;;;;;;5064696;28;20377;-84
2021/09/02 10:08:41;;;;;;;;;;;;;;;;;;5027396;28;20003;-84
2021/09/02 10:11:10;;;;;;;;;;;;;;;;;;5037878;28;20423;-84
2021/09/02 10:13:35;;;;;;;;;;;;;;;;;;5024721;28;19917;-84
2021/09/02 10:16:01;;;;;;;;;;;;;;;;;;5036670;28;19999;-84
2021/09/02 10:18:27;;;;;;;;;;;;;;;;;;5037313;28;19912;-84
2021/09/02 10:20:54;;;;;;;;;;;;;;;;;;5071315;28;19916;-84
2021/09/02 10:23:26;;;;;;;;;;;;;;;;;;5051749;28;20367;-85
2021/09/02 10:25:52;;;;;;;;;;;;;;;;;;5036338;28;19923;-87
2021/09/02 10:28:31;;;;;;;;;;;;;;;;;;5061733;28;20336;-87
2021/09/02 10:30:59;;;;;;;;;;;;;;;;;;5062843;28;19995;-87
2021/09/02 10:33:35;;;;;;;;;;;;;;;;;;5053428;28;19935;-87
2021/09/02 10:36:01;;;;;;;;;;;;;;;;;;5034615;28;19924;-87
2021/09/02 10:38:42;;;;;;;;;;;;;;;;;;5076879;28;19916;-87
2021/09/02 10:41:12;;;;;;;;;;;;;;;;;;5040622;28;19913;-87
2021/09/02 10:44:03;;;;;;;;;;;;;;;;;;5070866;28;19912;-88
2021/09/02 10:46:30;;;;;;;;;;;;;;;;;;5052981;28;19957;-87
2021/09/02 10:49:09;;;;;;;;;;;;;;;;;;5041866;28;20358;-85
2021/09/02 10:51:35;;;;;;;;;;;;;;;;;;5074536;28;19904;-87
2021/09/02 10:54:01;;;;;;;;;;;;;;;;;;5041368;28;19920;-88
2021/09/02 10:56:33;;;;;;;;;;;;;;;;;;5041407;28;19908;-85
2021/09/02 10:58:59;;;;;;;;;;;;;;;;;;5057151;28;19931;-84
2021/09/02 11:01:25;;;;;;;;;;;;;;;;;;5057269;28;20358;-84
2021/09/02 11:03:55;;;;;;;;;;;;;;;;;;5056988;28;19916;-84
2021/09/02 11:06:20;;;;;;;;;;;;;;;;;;5053741;28;20461;-85
2021/09/02 11:08:45;;;;;;;;;;;;;;;;;;5055273;28;19920;-84
2021/09/02 11:11:14;;;;;;;;;;;;;;;;;;5074111;28;20288;-85
2021/09/02 11:13:43;;;;;;;;;;;;;;;;;;5057142;28;19909;-85
2021/09/02 11:16:13;;;;;;;;;;;;;;;;;;5057225;28;19904;-84
2021/09/02 11:18:44;;;;;;;;;;;;;;;;;;5056499;28;19912;-84
2021/09/02 11:21:12;;;;;;;;;;;;;;;;;;5047624;28;19908;-84
2021/09/02 11:23:40;;;;;;;;;;;;;;;;;;5067740;28;19912;-84
2021/09/02 11:26:07;;;;;;;;;;;;;;;;;;5038456;28;19923;-84
2021/09/02 11:28:53;;;;;;;;;;;;;;;;;;5056217;28;20324;-84
2021/09/02 11:31:19;;;;;;;;;;;;;;;;;;5087859;28;19912;-84
2021/09/02 11:33:45;;;;;;;;;;;;;;;;;;5055749;28;19919;-84
2021/09/02 11:36:10;;;;;;;;;;;;;;;;;;5070399;28;19925;-85
2021/09/02 11:38:36;;;;;;;;;;;;;;;;;;5053390;28;19912;-81
2021/09/02 11:41:20;;;;;;;;;;;;;;;;;;5067915;28;20370;-82
2021/09/02 11:43:47;;;;;;;;;;;;;;;;;;5039758;28;19956;-81
2021/09/02 11:46:12;;;;;;;;;;;;;;;;;;5056388;28;19923;-82
2021/09/02 11:48:44;;;;;;;;;;;;;;;;;;5072792;28;19998;-80
2021/09/02 11:51:10;;;;;;;;;;;;;;;;;;5054844;28;19920;-80
2021/09/02 11:53:35;;;;;;;;;;;;;;;;;;5051438;28;20286;-80
2021/09/02 11:56:27;;;;;;;;;;;;;;;;;;5033330;28;19970;-81
2021/09/02 11:58:57;;;;;;;;;;;;;;;;;;5061768;28;19921;-81
2021/09/02 12:01:22;;;;;;;;;;;;;;;;;;5074914;28;20317;-80
2021/09/02 12:03:51;;;;;;;;;;;;;;;;;;5077365;28;19912;-80
2021/09/02 12:06:23;;;;;;;;;;;;;;;;;;5054241;28;20328;-82
2021/09/02 12:08:48;;;;;;;;;;;;;;;;;;5053626;28;19916;-82
2021/09/02 12:11:16;;;;;;;;;;;;;;;;;;5072025;28;20012;-82
2021/09/02 12:13:41;;;;;;;;;;;;;;;;;;5071819;28;19916;-81
2021/09/02 12:16:07;;;;;;;;;;;;;;;;;;5071916;28;19908;-80
2021/09/02 12:18:33;;;;;;;;;;;;;;;;;;5040643;28;20282;-81
2021/09/02 12:21:08;;;;;;;;;;;;;;;;;;5055178;28;19915;-81
2021/09/02 12:23:41;;;;;;;;;;;;;;;;;;5054673;28;20002;-82
2021/09/02 12:26:07;;;;;;;;;;;;;;;;;;5052003;28;19960;-80
2021/09/02 12:28:42;;;;;;;;;;;;;;;;;;5067281;28;19958;-81
2021/09/02 12:31:15;;;;;;;;;;;;;;;;;;5071271;28;19962;-81
2021/09/02 12:34:16;;;;;;;;;;;;;;;;;;5067542;28;20381;-81
2021/09/02 12:36:41;;;;;;;;;;;;;;;;;;4992263;28;19918;-80
2021/09/02 12:39:14;;;;;;;;;;;;;;;;;;5027421;28;19917;-82
2021/09/02 12:41:39;;;;;;;;;;;;;;;;;;5051980;28;20336;-81
2021/09/02 12:44:10;;;;;;;;;;;;;;;;;;5069133;28;19994;-80
2021/09/02 12:47:14;;;;;;;;;;;;;;;;;;5056936;28;19919;-81
2021/09/02 12:49:40;;;;;;;;;;;;;;;;;;5036153;28;19919;-80
2021/09/02 12:52:19;;;;;;;;;;;;;;;;;;5032691;28;19920;-79
2021/09/02 12:55:03;;;;;;;;;;;;;;;;;;5051662;28;19909;-81
2021/09/02 12:57:33;;;;;;;;;;;;;;;;;;5051691;28;19996;-81
2021/09/02 12:59:58;;;;;;;;;;;;;;;;;;5051402;28;20278;-81
2021/09/02 13:02:24;;;;;;;;;;;;;;;;;;5051445;28;19909;-80
2021/09/02 13:04:49;;;;;;;;;;;;;;;;;;5051438;28;19915;-81
2021/09/02 13:07:14;;;;;;;;;;;;;;;;;;5051280;28;20657;-81
2021/09/02 13:09:39;;;;;;;;;;;;;;;;;;5034407;28;19921;-81
2021/09/02 13:12:05;;;;;;;;;;;;;;;;;;5051713;28;19913;-81
2021/09/02 13:14:30;;;;;;;;;;;;;;;;;;5051447;28;19917;-81
2021/09/02 13:16:56;;;;;;;;;;;;;;;;;;5051495;28;19999;-81
2021/09/02 13:19:21;;;;;;;;;;;;;;;;;;5051622;28;19919;-80
2021/09/02 13:21:46;;;;;;;;;;;;;;;;;;5034538;28;19909;-81
2021/09/02 13:24:12;;;;;;;;;;;;;;;;;;5054565;28;19951;-81
2021/09/02 13:26:37;;;;;;;;;;;;;;;;;;5054310;28;20285;-81
2021/09/02 13:29:02;;;;;;;;;;;;;;;;;;5054600;28;20266;-81
2021/09/02 13:31:28;;;;;;;;;;;;;;;;;;5054642;28;19957;-81
2021/09/02 13:33:53;;;;;;;;;;;;;;;;;;5027842;28;19958;-81
2021/09/02 13:36:20;;;;;;;;;;;;;;;;;;5039814;28;20263;-81
2021/09/02 13:38:46;;;;;;;;;;;;;;;;;;5070549;28;20435;-81
2021/09/02 13:41:11;;;;;;;;;;;;;;;;;;5071187;28;19912;-81
2021/09/02 13:43:36;;;;;;;;;;;;;;;;;;5054618;28;19909;-80
2021/09/02 13:46:02;;;;;;;;;;;;;;;;;;5054089;28;19919;-81
2021/09/02 13:48:27;;;;;;;;;;;;;;;;;;5052812;28;19908;-81
2021/09/02 13:50:52;;;;;;;;;;;;;;;;;;5054083;28;19912;-80
2021/09/02 13:53:18;;;;;;;;;;;;;;;;;;5053435;28;19916;-80
2021/09/02 13:55:43;;;;;;;;;;;;;;;;;;5071052;28;19908;-80
2021/09/02 13:58:09;;;;;;;;;;;;;;;;;;5053921;28;19908;-81
2021/09/02 14:00:34;;;;;;;;;;;;;;;;;;5070165;28;19919;-80
2021/09/02 14:02:59;;;;;;;;;;;;;;;;;;5070940;28;19908;-81
2021/09/02 14:05:24;;;;;;;;;;;;;;;;;;5053375;28;19924;-81
2021/09/02 14:07:51;;;;;;;;;;;;;;;;;;5070397;28;19916;-81
2021/09/02 14:10:16;;;;;;;;;;;;;;;;;;5070795;28;19917;-81
2021/09/02 14:12:42;;;;;;;;;;;;;;;;;;5054208;28;19935;-81
2021/09/02 14:15:10;;;;;;;;;;;;;;;;;;5074815;28;19909;-81
2021/09/02 14:17:35;;;;;;;;;;;;;;;;;;5056503;28;20076;-80
2021/09/02 14:20:00;;;;;;;;;;;;;;;;;;5058277;28;20437;-80
2021/09/02 14:22:26;;;;;;;;;;;;;;;;;;5057340;28;19909;-80
2021/09/02 14:24:51;;;;;;;;;;;;;;;;;;5058348;28;19908;-81
2021/09/02 14:27:16;;;;;;;;;;;;;;;;;;5057349;28;20369;-81
2021/09/02 14:29:42;;;;;;;;;;;;;;;;;;5074602;28;19963;-80
2021/09/02 14:32:07;;;;;;;;;;;;;;;;;;5057650;28;19912;-80
2021/09/02 14:34:33;;;;;;;;;;;;;;;;;;5074374;28;19909;-81
2021/09/02 14:36:58;;;;;;;;;;;;;;;;;;5057115;28;19912;-81
2021/09/02 14:39:23;;;;;;;;;;;;;;;;;;5074574;28;19919;-80
2021/09/02 14:41:49;;;;;;;;;;;;;;;;;;5074120;28;19912;-80
2021/09/02 14:44:14;;;;;;;;;;;;;;;;;;5074150;28;19991;-80
2021/09/02 14:46:39;;;;;;;;;;;;;;;;;;5073645;28;19912;-81
2021/09/02 14:49:05;;;;;;;;;;;;;;;;;;5058575;28;19913;-81
2021/09/02 14:51:30;;;;;;;;;;;;;;;;;;5037060;28;19913;-80
2021/09/02 14:53:55;;;;;;;;;;;;;;;;;;5054054;28;19924;-81
2021/09/02 14:56:21;;;;;;;;;;;;;;;;;;5037564;28;19913;-80
2021/09/02 14:58:46;;;;;;;;;;;;;;;;;;5053931;28;19916;-81
2021/09/02 15:01:11;;;;;;;;;;;;;;;;;;5042872;28;20286;-80
2021/09/02 15:03:38;;;;;;;;;;;;;;;;;;5074383;28;19912;-80
2021/09/02 15:06:03;;;;;;;;;;;;;;;;;;5072543;28;19957;-80
2021/09/02 15:08:28;;;;;;;;;;;;;;;;;;5065339;28;20384;-80
2021/09/02 15:10:54;;;;;;;;;;;;;;;;;;5071481;28;19908;-80
2021/09/02 15:13:19;;;;;;;;;;;;;;;;;;5057285;28;20001;-80
2021/09/02 15:15:45;;;;;;;;;;;;;;;;;;5057405;28;19935;-80
2021/09/02 15:18:10;;;;;;;;;;;;;;;;;;5054449;28;19967;-81
2021/09/02 15:20:35;;;;;;;;;;;;;;;;;;5056584;28;20034;-81
2021/09/02 15:23:01;;;;;;;;;;;;;;;;;;5046098;28;20362;-81
2021/09/02 15:25:26;;;;;;;;;;;;;;;;;;5054955;28;19955;-80
2021/09/02 15:27:51;;;;;;;;;;;;;;;;;;5047921;28;19917;-80
2021/09/02 15:30:17;;;;;;;;;;;;;;;;;;5054029;28;19962;-80
2021/09/02 15:32:42;;;;;;;;;;;;;;;;;;5073182;28;19916;-80
2021/09/02 15:35:08;;;;;;;;;;;;;;;;;;5072203;28;19969;-80
2021/09/02 15:37:33;;;;;;;;;;;;;;;;;;5072762;28;20007;-80
2021/09/02 15:40:04;;;;;;;;;;;;;;;;;;5073559;28;20314;-81
2021/09/02 15:42:30;;;;;;;;;;;;;;;;;;5073208;28;20358;-81
2021/09/02 15:44:55;;;;;;;;;;;;;;;;;;5072990;28;19923;-81
2021/09/02 15:47:20;;;;;;;;;;;;;;;;;;5072621;28;20006;-80
2021/09/02 15:49:46;;;;;;;;;;;;;;;;;;5056307;28;19909;-81
2021/09/02 15:52:11;;;;;;;;;;;;;;;;;;5056091;28;19912;-81
2021/09/02 15:54:36;;;;;;;;;;;;;;;;;;5056082;28;19965;-81
2021/09/02 15:57:02;;;;;;;;;;;;;;;;;;5072726;28;19912;-82
2021/09/02 15:59:27;;;;;;;;;;;;;;;;;;5055981;28;19908;-81
2021/09/02 16:01:52;;;;;;;;;;;;;;;;;;5051653;28;19952;-81
2021/09/02 16:04:18;;;;;;;;;;;;;;;;;;5071636;28;19921;-80
2021/09/02 16:06:43;;;;;;;;;;;;;;;;;;5055090;28;19920;-81
2021/09/02 16:09:08;;;;;;;;;;;;;;;;;;5068964;28;19916;-81
2021/09/02 16:11:34;;;;;;;;;;;;;;;;;;5062345;28;19912;-81
2021/09/02 16:13:59;;;;;;;;;;;;;;;;;;5052848;28;19912;-81
2021/09/02 16:16:24;;;;;;;;;;;;;;;;;;5060522;28;20344;-81
2021/09/02 16:18:50;;;;;;;;;;;;;;;;;;5039020;28;19923;-81
2021/09/02 16:21:17;;;;;;;;;;;;;;;;;;5072377;28;19938;-81
2021/09/02 16:23:44;;;;;;;;;;;;;;;;;;5043657;28;20424;-81
2021/09/02 16:26:09;;;;;;;;;;;;;;;;;;5035803;28;19915;-81
2021/09/02 16:28:35;;;;;;;;;;;;;;;;;;5035367;28;19908;-81
2021/09/02 16:31:00;;;;;;;;;;;;;;;;;;5037973;28;20297;-80
2021/09/02 16:33:25;;;;;;;;;;;;;;;;;;5071800;28;19920;-81
2021/09/02 16:35:53;;;;;;;;;;;;;;;;;;5071795;28;19913;-80
2021/09/02 16:38:18;;;;;;;;;;;;;;;;;;5054173;28;19942;-81
2021/09/02 16:40:45;;;;;;;;;;;;;;;;;;5053952;28;19916;-81